Time;durP1;ratioP1;P1;durP2;ratioP2;P2;SDS_P1;SDS_P2;PMS_P1;PMS_P2;Temp;Humidity;BMP_temperature;BMP_pressure;BME280_temperature;BME280_humidity;BME280_pressure;Samples;Min_cycle;Max_cycle;Signal;HPM_P1;HPM_P2
2022/03/12 00:00:50;;;;;;;17.87;13.37;;;5.60;83.10;;;;;;5014914;28;20458;-71
2022/03/12 00:03:16;;;;;;;14.37;11.93;;;5.50;83.50;;;;;;5015658;28;20891;-71
2022/03/12 00:05:52;;;;;;;14.63;11.90;;;5.60;83.60;;;;;;5015148;28;20250;-70
2022/03/12 00:08:19;;;;;;;16.63;11.90;;;5.50;83.50;;;;;;5015199;28;20479;-71
2022/03/12 00:10:51;;;;;;;15.27;12.67;;;5.60;83.60;;;;;;5015135;28;20411;-70
2022/03/12 00:13:21;;;;;;;16.53;13.63;;;5.70;84.00;;;;;;5015469;28;20414;-70
2022/03/12 00:15:53;;;;;;;15.57;13.10;;;5.70;83.70;;;;;;5013366;28;20542;-70
2022/03/12 00:18:20;;;;;;;16.73;13.40;;;5.70;84.10;;;;;;4998215;28;20437;-70
2022/03/12 00:20:50;;;;;;;15.23;12.90;;;5.70;84.50;;;;;;4989585;28;20499;-71
2022/03/12 00:23:18;;;;;;;21.37;14.53;;;5.80;84.80;;;;;;4995077;28;20491;-71
2022/03/12 00:25:46;;;;;;;15.77;14.13;;;5.70;84.60;;;;;;4995019;28;20502;-70
2022/03/12 00:28:12;;;;;;;16.63;13.80;;;5.80;85.20;;;;;;4995658;28;20451;-71
2022/03/12 00:30:39;;;;;;;17.90;13.07;;;5.80;85.10;;;;;;4995992;28;20412;-71
2022/03/12 00:33:05;;;;;;;17.87;13.10;;;5.90;84.80;;;;;;4996055;28;20407;-70
2022/03/12 00:35:31;;;;;;;16.00;11.63;;;6.00;85.00;;;;;;5004325;28;20780;-70
2022/03/12 00:37:57;;;;;;;17.50;13.80;;;5.90;85.00;;;;;;5014572;28;20179;-71
2022/03/12 00:40:23;;;;;;;17.10;13.47;;;5.70;85.70;;;;;;5013574;28;20419;-71
2022/03/12 00:42:49;;;;;;;15.10;12.77;;;5.60;85.80;;;;;;5012199;28;20430;-71
2022/03/12 00:45:15;;;;;;;16.50;13.07;;;5.50;85.80;;;;;;5014486;28;20431;-71
2022/03/12 00:47:41;;;;;;;16.30;12.57;;;5.60;85.70;;;;;;5014401;28;20491;-69
2022/03/12 00:50:08;;;;;;;21.67;13.00;;;5.70;85.00;;;;;;5012484;28;20447;-71
2022/03/12 00:52:33;;;;;;;16.50;12.30;;;5.80;84.80;;;;;;5014412;28;20536;-70
2022/03/12 00:54:59;;;;;;;16.07;14.30;;;6.00;83.70;;;;;;5014243;28;20423;-71
2022/03/12 00:57:25;;;;;;;14.80;13.20;;;6.10;84.90;;;;;;5005453;28;20697;-70
2022/03/12 00:59:51;;;;;;;15.73;12.03;;;6.20;84.30;;;;;;4994730;28;20630;-71
2022/03/12 01:02:18;;;;;;;15.73;13.53;;;6.10;84.60;;;;;;4994552;28;20420;-71
2022/03/12 01:04:44;;;;;;;15.70;13.67;;;6.20;85.30;;;;;;4994437;28;20200;-70
2022/03/12 01:07:11;;;;;;;15.00;12.77;;;6.20;85.20;;;;;;4992682;28;20456;-70
2022/03/12 01:09:38;;;;;;;16.43;12.83;;;6.30;85.60;;;;;;4994442;28;20408;-71
2022/03/12 01:12:05;;;;;;;13.90;12.50;;;6.40;85.20;;;;;;4994092;28;20660;-71
2022/03/12 01:14:31;;;;;;;14.47;12.57;;;6.40;84.80;;;;;;4994587;28;20502;-70
2022/03/12 01:17:00;;;;;;;17.13;13.33;;;6.40;84.80;;;;;;5013696;28;20489;-70
2022/03/12 01:19:26;;;;;;;13.93;11.60;;;6.50;84.60;;;;;;5013949;28;20176;-70
2022/03/12 01:21:52;;;;;;;13.33;11.93;;;6.50;84.10;;;;;;5014146;28;20416;-71
2022/03/12 01:24:18;;;;;;;13.63;11.97;;;6.60;85.00;;;;;;5013183;28;20485;-71
2022/03/12 01:26:43;;;;;;;13.90;11.67;;;6.60;84.80;;;;;;5013541;28;20434;-70
2022/03/12 01:29:09;;;;;;;15.07;13.37;;;6.70;83.50;;;;;;5013673;28;20570;-70
2022/03/12 01:31:36;;;;;;;14.83;12.67;;;6.70;83.00;;;;;;5013314;28;20171;-71
2022/03/12 01:34:03;;;;;;;16.40;12.70;;;6.80;82.50;;;;;;5014181;28;20195;-70
2022/03/12 01:36:29;;;;;;;14.37;12.00;;;6.80;83.40;;;;;;5013549;28;20826;-71
2022/03/12 01:38:56;;;;;;;13.53;12.00;;;6.90;83.10;;;;;;5014227;28;20421;-70
2022/03/12 01:41:24;;;;;;;14.30;12.90;;;6.90;82.50;;;;;;5013602;28;20411;-70
2022/03/12 01:43:53;;;;;;;15.93;11.67;;;6.80;82.60;;;;;;5013556;28;20438;-71
2022/03/12 01:46:43;;;;;;;14.37;12.30;;;6.80;82.20;;;;;;5013083;28;20454;-70
2022/03/12 01:49:22;;;;;;;13.57;10.93;;;6.60;77.70;;;;;;5011747;28;20451;-70
2022/03/12 01:51:51;;;;;;;14.60;12.00;;;6.60;82.00;;;;;;4974683;28;20389;-70
2022/03/12 01:54:23;;;;;;;15.97;13.80;;;6.70;81.00;;;;;;4973071;28;20573;-70
2022/03/12 01:56:51;;;;;;;12.90;11.10;;;6.80;81.20;;;;;;4974599;28;20491;-70
2022/03/12 01:59:18;;;;;;;14.50;12.43;;;6.80;81.80;;;;;;5007169;28;20450;-70
2022/03/12 02:01:45;;;;;;;12.93;10.60;;;6.80;82.10;;;;;;5013447;28;20514;-70
2022/03/12 02:04:11;;;;;;;13.60;12.13;;;6.80;82.60;;;;;;5013395;28;20506;-71
2022/03/12 02:06:43;;;;;;;14.70;12.10;;;6.80;82.40;;;;;;5013328;28;20502;-70
2022/03/12 02:09:14;;;;;;;15.20;11.20;;;6.60;80.10;;;;;;5012045;28;20495;-70
2022/03/12 02:11:41;;;;;;;15.13;13.27;;;6.60;79.00;;;;;;5013049;28;20427;-70
2022/03/12 02:14:15;;;;;;;15.93;11.50;;;6.70;79.70;;;;;;5012967;28;20434;-70
2022/03/12 02:17:03;;;;;;;15.07;12.30;;;6.70;77.90;;;;;;5012826;28;20410;-70
2022/03/12 02:19:31;;;;;;;13.50;11.13;;;6.60;78.40;;;;;;5013101;28;20413;-71
2022/03/12 02:21:56;;;;;;;13.83;10.60;;;6.60;78.90;;;;;;5013268;28;20896;-70
2022/03/12 02:24:25;;;;;;;15.27;12.20;;;6.80;77.00;;;;;;5017005;28;20451;-71
2022/03/12 02:26:53;;;;;;;14.77;12.43;;;7.00;76.80;;;;;;5017375;28;20180;-71
2022/03/12 02:29:21;;;;;;;11.83;10.53;;;7.10;77.00;;;;;;5017357;28;20419;-70
2022/03/12 02:31:49;;;;;;;13.03;10.97;;;7.20;74.10;;;;;;5016526;28;20406;-70
2022/03/12 02:34:21;;;;;;;12.33;10.90;;;7.20;74.40;;;;;;5016951;28;20911;-70
2022/03/12 02:36:49;;;;;;;15.03;12.80;;;7.20;73.70;;;;;;5017194;28;20395;-70
2022/03/12 02:39:16;;;;;;;13.43;12.00;;;7.00;73.30;;;;;;5017461;28;20757;-70
2022/03/12 02:41:42;;;;;;;13.53;11.60;;;6.60;72.70;;;;;;5017251;28;20406;-70
2022/03/12 02:44:10;;;;;;;19.60;12.73;;;6.70;76.20;;;;;;5016620;28;20430;-70
2022/03/12 02:46:40;;;;;;;13.03;11.40;;;6.60;75.00;;;;;;5016334;28;20815;-71
2022/03/12 02:49:06;;;;;;;14.47;12.40;;;6.60;76.10;;;;;;5016552;28;20450;-71
2022/03/12 02:51:34;;;;;;;15.47;12.17;;;6.70;77.20;;;;;;5016671;28;20789;-70
2022/03/12 02:54:00;;;;;;;14.50;13.00;;;6.60;77.30;;;;;;5016518;28;20251;-71
2022/03/12 02:56:29;;;;;;;13.17;11.77;;;6.60;77.70;;;;;;5016740;28;20462;-70
2022/03/12 02:58:55;;;;;;;12.83;11.07;;;6.60;78.90;;;;;;5016364;28;20411;-71
2022/03/12 03:01:23;;;;;;;12.80;11.50;;;6.50;79.40;;;;;;5016229;28;20484;-70
2022/03/12 03:03:48;;;;;;;14.00;11.60;;;6.50;80.00;;;;;;5004257;28;20180;-70
2022/03/12 03:06:15;;;;;;;14.10;11.57;;;6.40;81.20;;;;;;4996662;28;20418;-70
2022/03/12 03:08:42;;;;;;;11.73;10.20;;;6.30;81.80;;;;;;4996763;28;20288;-70
2022/03/12 03:11:16;;;;;;;15.10;12.53;;;6.30;82.00;;;;;;4991215;28;20427;-70
2022/03/12 03:13:44;;;;;;;14.70;12.37;;;6.20;81.80;;;;;;4992539;28;20967;-70
2022/03/12 03:16:22;;;;;;;16.77;11.60;;;6.10;81.70;;;;;;5010456;28;20429;-70
2022/03/12 03:18:51;;;;;;;14.00;11.83;;;6.00;82.50;;;;;;5016567;28;20387;-70
2022/03/12 03:21:19;;;;;;;13.57;10.40;;;5.90;82.80;;;;;;5018300;28;20895;-70
2022/03/12 03:23:45;;;;;;;14.13;12.60;;;5.80;83.40;;;;;;5017520;28;20775;-70
2022/03/12 03:26:12;;;;;;;12.40;11.10;;;5.70;83.50;;;;;;5017953;28;20435;-70
2022/03/12 03:28:37;;;;;;;13.80;12.40;;;5.60;83.70;;;;;;5018264;28;20459;-70
2022/03/12 03:31:06;;;;;;;14.10;11.30;;;5.70;83.90;;;;;;5017725;28;20544;-70
2022/03/12 03:33:32;;;;;;;13.13;10.50;;;5.80;84.30;;;;;;5018247;28;20168;-70
2022/03/12 03:35:58;;;;;;;15.93;12.27;;;5.80;83.90;;;;;;5015449;28;20423;-70
2022/03/12 03:38:24;;;;;;;12.00;10.80;;;5.80;84.50;;;;;;5036104;23;20712;-71
2022/03/12 03:40:50;;;;;;;11.60;10.37;;;5.80;83.60;;;;;;5004505;28;20177;-70
2022/03/12 03:43:19;;;;;;;15.23;11.83;;;5.90;83.40;;;;;;4996140;28;20404;-70
2022/03/12 03:45:48;;;;;;;15.60;11.67;;;6.00;83.50;;;;;;5009746;28;20446;-72
2022/03/12 03:48:16;;;;;;;15.27;11.07;;;6.00;83.70;;;;;;5015371;28;20504;-71
2022/03/12 03:50:44;;;;;;;13.00;10.60;;;5.90;83.50;;;;;;5015425;28;20457;-71
2022/03/12 03:53:11;;;;;;;13.40;10.47;;;5.90;83.10;;;;;;5015392;28;20823;-70
2022/03/12 03:55:38;;;;;;;14.53;11.67;;;5.90;83.80;;;;;;5015117;28;20773;-70
2022/03/12 03:58:04;;;;;;;14.67;11.30;;;5.90;83.30;;;;;;5015241;28;20422;-71
2022/03/12 04:00:33;;;;;;;13.73;10.50;;;6.00;82.60;;;;;;5013931;28;20415;-71
2022/03/12 04:03:02;;;;;;;19.00;13.07;;;6.00;81.00;;;;;;5014009;28;20518;-70
2022/03/12 04:05:36;;;;;;;13.17;11.10;;;6.00;80.60;;;;;;5013987;28;20919;-70
2022/03/12 04:08:07;;;;;;;12.67;11.23;;;5.90;80.70;;;;;;5015643;28;20478;-71
2022/03/12 04:10:34;;;;;;;12.17;10.50;;;5.90;80.90;;;;;;5015062;28;20392;-71
2022/03/12 04:13:00;;;;;;;14.17;12.17;;;5.90;81.50;;;;;;5015382;28;20415;-71
2022/03/12 04:15:26;;;;;;;12.90;11.03;;;5.90;82.50;;;;;;5013729;28;20433;-71
2022/03/12 04:17:52;;;;;;;15.90;11.70;;;5.90;82.80;;;;;;5014945;28;20975;-71
2022/03/12 04:20:22;;;;;;;14.20;11.57;;;5.90;83.80;;;;;;5015023;28;20543;-71
2022/03/12 04:22:49;;;;;;;14.13;11.93;;;5.80;83.70;;;;;;5014956;28;20168;-72
2022/03/12 04:25:15;;;;;;;13.40;11.23;;;5.80;84.10;;;;;;5015392;28;20509;-71
2022/03/12 04:27:44;;;;;;;14.37;11.43;;;5.70;84.40;;;;;;5013616;28;20441;-70
2022/03/12 04:30:15;;;;;;;17.27;11.80;;;5.60;84.50;;;;;;5014840;28;20407;-71
2022/03/12 04:32:42;;;;;;;14.67;11.50;;;5.40;85.30;;;;;;5014800;28;20415;-71
2022/03/12 04:35:09;;;;;;;15.20;11.40;;;5.30;85.60;;;;;;5015316;28;20434;-71
2022/03/12 04:37:35;;;;;;;12.93;11.00;;;5.30;86.00;;;;;;5014941;28;20494;-71
2022/03/12 04:40:15;;;;;;;12.90;11.33;;;5.40;85.90;;;;;;5014723;28;20457;-71
2022/03/12 04:42:44;;;;;;;14.80;11.20;;;5.40;85.90;;;;;;5013296;28;20415;-72
2022/03/12 04:45:13;;;;;;;13.20;10.97;;;5.30;86.40;;;;;;5014190;28;20827;-71
2022/03/12 04:47:45;;;;;;;14.37;11.70;;;5.30;86.30;;;;;;5013690;28;20439;-71
2022/03/12 04:50:12;;;;;;;13.10;11.50;;;5.20;86.40;;;;;;5014729;28;20822;-71
2022/03/12 04:52:42;;;;;;;12.27;10.97;;;5.40;86.50;;;;;;5015433;28;20731;-72
2022/03/12 04:55:10;;;;;;;14.17;11.90;;;5.40;87.70;;;;;;5014835;28;20431;-71
2022/03/12 04:57:36;;;;;;;13.67;11.90;;;5.30;86.10;;;;;;5013386;28;20461;-72
2022/03/12 05:00:12;;;;;;;14.67;12.57;;;5.10;86.30;;;;;;5014242;28;20411;-71
2022/03/12 05:02:38;;;;;;;13.47;11.27;;;5.30;87.20;;;;;;5013945;28;20469;-72
2022/03/12 05:05:04;;;;;;;13.83;11.67;;;5.40;87.80;;;;;;5014119;28;20466;-71
2022/03/12 05:07:29;;;;;;;14.43;11.80;;;5.40;87.10;;;;;;5005326;28;20239;-71
2022/03/12 05:09:56;;;;;;;16.20;12.90;;;5.50;86.20;;;;;;4994478;28;20431;-71
2022/03/12 05:12:24;;;;;;;13.67;10.60;;;5.40;84.30;;;;;;4994450;28;20191;-72
2022/03/12 05:14:51;;;;;;;12.77;10.17;;;5.60;85.70;;;;;;4994175;28;20813;-72
2022/03/12 05:17:18;;;;;;;12.80;11.40;;;5.80;85.90;;;;;;5013419;28;20422;-71
2022/03/12 05:19:45;;;;;;;14.17;10.43;;;5.70;80.70;;;;;;5013886;28;20423;-72
2022/03/12 05:22:10;;;;;;;14.63;11.20;;;5.90;80.50;;;;;;5014463;28;20402;-72
2022/03/12 05:24:36;;;;;;;14.43;11.80;;;6.00;79.90;;;;;;5014259;28;20764;-72
2022/03/12 05:27:02;;;;;;;13.30;11.00;;;6.20;80.10;;;;;;5013796;28;20644;-72
2022/03/12 05:29:30;;;;;;;12.67;11.37;;;6.30;80.60;;;;;;5013868;28;20204;-72
2022/03/12 05:31:55;;;;;;;13.97;11.67;;;6.40;80.60;;;;;;5013415;28;20407;-72
2022/03/12 05:34:23;;;;;;;13.40;12.00;;;6.40;80.50;;;;;;5013713;28;20396;-71
2022/03/12 05:36:49;;;;;;;12.20;10.90;;;6.40;81.80;;;;;;5013615;28;20184;-72
2022/03/12 05:39:16;;;;;;;12.33;10.90;;;6.30;82.20;;;;;;5013514;28;20438;-72
2022/03/12 05:41:48;;;;;;;15.80;12.00;;;6.30;82.60;;;;;;5013691;28;20750;-72
2022/03/12 05:44:14;;;;;;;13.67;10.60;;;6.40;82.60;;;;;;5012005;28;20420;-71
2022/03/12 05:46:43;;;;;;;14.20;11.23;;;6.40;82.00;;;;;;5013553;28;20465;-72
2022/03/12 05:49:09;;;;;;;12.50;11.20;;;6.40;82.80;;;;;;5013259;28;20505;-72
2022/03/12 05:51:36;;;;;;;11.83;10.63;;;6.40;83.00;;;;;;5012066;28;20430;-71
2022/03/12 05:54:03;;;;;;;14.70;12.23;;;6.30;84.00;;;;;;5014216;28;20168;-71
2022/03/12 05:56:29;;;;;;;14.00;11.40;;;6.10;83.70;;;;;;5011047;28;20437;-71
2022/03/12 05:58:54;;;;;;;14.87;11.83;;;6.20;84.00;;;;;;5013151;28;20435;-71
2022/03/12 06:01:20;;;;;;;11.70;10.50;;;6.10;80.90;;;;;;5013830;28;20173;-71
2022/03/12 06:03:46;;;;;;;12.20;10.93;;;6.10;80.20;;;;;;5013531;28;20168;-71
2022/03/12 06:06:13;;;;;;;13.43;11.27;;;6.20;79.10;;;;;;5013274;28;20318;-70
2022/03/12 06:08:39;;;;;;;12.83;10.70;;;6.20;76.10;;;;;;5013359;28;20199;-70
2022/03/12 06:11:05;;;;;;;15.07;10.90;;;6.10;75.40;;;;;;5013271;28;20746;-70
2022/03/12 06:13:31;;;;;;;13.50;10.80;;;6.00;74.80;;;;;;5013259;28;20403;-70
2022/03/12 06:16:02;;;;;;;13.97;11.40;;;6.20;75.40;;;;;;5011585;28;20192;-71
2022/03/12 06:18:30;;;;;;;13.17;10.47;;;6.20;74.90;;;;;;5013448;28;20422;-71
2022/03/12 06:20:56;;;;;;;16.13;11.43;;;6.30;74.70;;;;;;5013430;28;20418;-71
2022/03/12 06:23:22;;;;;;;14.03;10.03;;;6.10;74.80;;;;;;5013191;28;20926;-70
2022/03/12 06:25:48;;;;;;;12.47;11.07;;;5.90;73.80;;;;;;5011890;28;20510;-71
2022/03/12 06:28:14;;;;;;;10.53;9.10;;;6.00;74.50;;;;;;5013073;28;20453;-71
2022/03/12 06:30:43;;;;;;;13.97;11.40;;;6.20;76.70;;;;;;5011443;28;20427;-71
2022/03/12 06:33:09;;;;;;;11.47;10.17;;;6.30;77.30;;;;;;4982635;28;20201;-70
2022/03/12 06:35:35;;;;;;;13.20;10.20;;;6.40;76.40;;;;;;5001254;28;20427;-71
2022/03/12 06:38:01;;;;;;;11.80;10.33;;;6.60;76.60;;;;;;5011406;28;20469;-70
2022/03/12 06:40:28;;;;;;;13.80;11.30;;;6.60;76.80;;;;;;5011447;28;20422;-71
2022/03/12 06:42:59;;;;;;;11.73;10.40;;;6.50;76.50;;;;;;5012189;28;20411;-70
2022/03/12 06:45:26;;;;;;;14.00;11.80;;;6.40;75.40;;;;;;5012294;28;20399;-70
2022/03/12 06:47:52;;;;;;;18.27;10.60;;;6.50;76.50;;;;;;5012019;28;20521;-70
2022/03/12 06:50:22;;;;;;;15.90;9.93;;;6.70;75.50;;;;;;5008783;28;20423;-70
2022/03/12 06:52:50;;;;;;;12.70;10.43;;;6.80;75.80;;;;;;5012298;28;20406;-69
2022/03/12 06:55:18;;;;;;;13.13;10.37;;;6.90;76.70;;;;;;5012293;28;20410;-70
2022/03/12 06:57:44;;;;;;;16.23;11.23;;;7.00;76.10;;;;;;5012040;28;20903;-69
2022/03/12 07:00:20;;;;;;;11.20;10.10;;;7.10;75.50;;;;;;5011905;28;20402;-70
2022/03/12 07:02:45;;;;;;;11.83;10.50;;;7.20;74.10;;;;;;5011972;28;20500;-70
2022/03/12 07:05:11;;;;;;;13.03;10.10;;;7.20;73.40;;;;;;5011454;28;21003;-70
2022/03/12 07:07:37;;;;;;;15.37;12.97;;;7.20;72.20;;;;;;5012053;28;20193;-70
2022/03/12 07:10:05;;;;;;;12.83;11.50;;;7.30;73.40;;;;;;5013169;28;20172;-70
2022/03/12 07:12:31;;;;;;;12.27;10.63;;;7.30;74.10;;;;;;5015045;28;20403;-70
2022/03/12 07:14:56;;;;;;;15.23;13.00;;;7.30;76.60;;;;;;5014962;28;20526;-70
2022/03/12 07:17:22;;;;;;;20.73;18.50;;;7.30;75.50;;;;;;4998135;28;20183;-70
2022/03/12 07:19:47;;;;;;;13.70;11.00;;;7.40;75.30;;;;;;4976221;28;20273;-70
2022/03/12 07:22:13;;;;;;;13.93;11.83;;;7.40;74.40;;;;;;4976425;28;20174;-70
2022/03/12 07:24:39;;;;;;;14.53;13.03;;;7.40;74.20;;;;;;4974966;28;20547;-70
2022/03/12 07:27:05;;;;;;;12.63;11.33;;;7.50;74.40;;;;;;4975700;28;20787;-70
2022/03/12 07:29:32;;;;;;;14.80;12.37;;;7.70;73.20;;;;;;4975778;28;20190;-70
2022/03/12 07:31:57;;;;;;;16.10;12.43;;;7.70;72.70;;;;;;5003680;28;20715;-70
2022/03/12 07:34:24;;;;;;;16.70;12.70;;;7.70;72.40;;;;;;5014660;28;20414;-70
2022/03/12 07:36:50;;;;;;;19.57;14.53;;;7.80;72.30;;;;;;5014507;28;20577;-70
2022/03/12 07:39:16;;;;;;;14.70;12.87;;;7.80;73.10;;;;;;4978423;28;1066697;-70
2022/03/12 07:41:41;;;;;;;16.47;12.50;;;7.80;71.60;;;;;;5014199;28;20173;-70
2022/03/12 07:44:07;;;;;;;15.13;11.27;;;7.90;71.20;;;;;;5015726;28;20182;-70
2022/03/12 07:46:33;;;;;;;14.30;12.10;;;8.00;70.70;;;;;;5014042;28;20269;-70
2022/03/12 07:49:00;;;;;;;14.33;12.37;;;8.20;71.40;;;;;;5015738;28;20738;-70
2022/03/12 07:51:26;;;;;;;15.20;13.10;;;8.20;70.10;;;;;;5014517;28;20923;-70
2022/03/12 07:53:52;;;;;;;18.13;14.40;;;8.30;70.10;;;;;;5015612;28;20412;-70
2022/03/12 07:56:19;;;;;;;16.27;12.83;;;8.10;71.00;;;;;;5013979;28;20419;-70
2022/03/12 07:58:44;;;;;;;16.50;14.27;;;8.10;71.00;;;;;;5015357;28;20437;-70
2022/03/12 08:01:10;;;;;;;14.30;12.37;;;7.80;71.80;;;;;;5015450;28;20415;-70
2022/03/12 08:03:36;;;;;;;13.40;12.00;;;7.70;71.60;;;;;;5015136;28;20307;-71
2022/03/12 08:06:06;;;;;;;16.70;13.70;;;7.70;72.00;;;;;;5013991;28;20595;-71
2022/03/12 08:08:32;;;;;;;14.50;13.00;;;7.70;71.60;;;;;;5014948;28;20537;-70
2022/03/12 08:13:44;;;;;;;15.83;12.93;;;7.40;71.60;;;;;;5015653;28;20885;-70
2022/03/12 08:16:13;;;;;;;12.90;11.60;;;7.40;72.40;;;;;;5015245;28;20785;-70
2022/03/12 08:18:39;;;;;;;15.07;12.77;;;7.50;72.20;;;;;;5012018;28;20460;-70
2022/03/12 08:21:05;;;;;;;13.07;11.60;;;7.60;72.30;;;;;;5014716;28;20550;-70
2022/03/12 08:23:31;;;;;;;16.33;11.97;;;7.90;72.50;;;;;;5014847;28;20853;-70
2022/03/12 08:25:57;;;;;;;21.43;13.27;;;8.40;70.90;;;;;;5014853;28;20579;-70
2022/03/12 08:28:23;;;;;;;13.10;11.70;;;8.70;70.30;;;;;;5014849;28;20545;-70
2022/03/12 08:30:49;;;;;;;15.00;12.70;;;8.80;70.50;;;;;;5014712;28;20414;-70
2022/03/12 08:33:14;;;;;;;15.30;11.40;;;9.10;70.20;;;;;;5013234;28;20179;-70
2022/03/12 08:35:40;;;;;;;14.70;13.10;;;9.10;69.10;;;;;;5014678;28;20171;-70
2022/03/12 08:38:07;;;;;;;13.83;12.17;;;9.20;68.90;;;;;;5014591;28;20652;-71
2022/03/12 08:40:33;;;;;;;12.87;11.40;;;9.30;68.70;;;;;;5015248;28;20150;-70
2022/03/12 08:42:58;;;;;;;14.60;13.10;;;9.10;67.90;;;;;;5014526;28;20762;-70
2022/03/12 08:45:24;;;;;;;14.60;11.93;;;9.10;67.90;;;;;;5014655;28;20174;-70
2022/03/12 08:47:50;;;;;;;16.63;12.97;;;9.00;68.10;;;;;;5013653;28;20203;-71
2022/03/12 08:50:16;;;;;;;14.73;12.87;;;9.00;68.40;;;;;;5014787;28;20160;-70
2022/03/12 08:52:42;;;;;;;13.83;12.07;;;9.00;67.90;;;;;;5012737;28;20420;-70
2022/03/12 08:55:09;;;;;;;15.50;13.10;;;8.90;68.60;;;;;;5013112;28;20558;-70
2022/03/12 08:57:36;;;;;;;14.83;12.70;;;8.90;68.40;;;;;;5012661;28;20917;-70
2022/03/12 09:00:05;;;;;;;13.83;12.40;;;8.90;68.30;;;;;;5014079;28;20807;-70
2022/03/12 09:02:32;;;;;;;15.67;12.13;;;9.10;68.90;;;;;;5013151;28;20525;-71
2022/03/12 09:04:58;;;;;;;14.97;13.37;;;9.30;68.30;;;;;;5014460;28;20422;-70
2022/03/12 09:07:24;;;;;;;15.67;12.33;;;9.60;67.50;;;;;;5014407;28;20431;-70
2022/03/12 09:09:51;;;;;;;16.57;13.20;;;9.50;67.00;;;;;;5014058;28;20439;-70
2022/03/12 09:12:16;;;;;;;15.90;13.47;;;9.60;66.70;;;;;;5000864;28;20171;-70
2022/03/12 09:14:42;;;;;;;17.90;13.30;;;9.60;67.90;;;;;;4994418;28;20405;-70
2022/03/12 09:17:07;;;;;;;15.93;12.40;;;9.50;66.90;;;;;;4994341;28;20178;-70
2022/03/12 09:19:33;;;;;;;21.83;15.60;;;9.70;67.20;;;;;;5013552;28;20188;-70
2022/03/12 09:21:58;;;;;;;20.97;15.87;;;9.80;66.10;;;;;;5013587;28;20176;-71
2022/03/12 09:24:25;;;;;;;16.60;13.97;;;9.90;65.80;;;;;;5005716;28;20177;-73
2022/03/12 09:26:51;;;;;;;17.60;14.40;;;10.10;64.40;;;;;;4994767;28;20186;-72
2022/03/12 09:29:17;;;;;;;16.00;14.27;;;10.30;64.30;;;;;;5015124;28;20466;-71
2022/03/12 09:31:43;;;;;;;16.60;13.80;;;10.30;64.00;;;;;;5012900;28;20168;-72
2022/03/12 09:34:09;;;;;;;16.83;15.13;;;10.30;64.20;;;;;;5014154;28;20847;-72
2022/03/12 09:36:36;;;;;;;17.13;14.30;;;10.20;63.80;;;;;;5014797;28;20458;-72
2022/03/12 09:39:06;;;;;;;15.77;13.57;;;10.40;63.90;;;;;;5039632;22;20244;-71
2022/03/12 09:41:34;;;;;;;18.07;14.83;;;10.40;64.40;;;;;;5015562;28;20781;-71
2022/03/12 09:44:00;;;;;;;19.40;14.47;;;10.40;63.80;;;;;;5013941;28;20557;-72
2022/03/12 09:46:26;;;;;;;18.93;14.03;;;10.40;64.10;;;;;;5013815;28;20391;-71
2022/03/12 09:48:51;;;;;;;14.90;13.33;;;10.40;64.60;;;;;;5013644;28;20989;-71
2022/03/12 09:51:17;;;;;;;18.07;14.00;;;10.40;64.50;;;;;;5013216;28;20164;-71
2022/03/12 09:53:43;;;;;;;18.27;16.30;;;10.50;64.60;;;;;;5012323;28;20234;-71
2022/03/12 09:56:09;;;;;;;15.50;14.00;;;10.80;64.50;;;;;;5014350;28;20251;-72
2022/03/12 09:58:34;;;;;;;16.07;14.37;;;11.10;64.10;;;;;;5012507;28;20272;-71
2022/03/12 10:01:00;;;;;;;17.03;14.73;;;11.40;63.80;;;;;;5013770;28;20825;-71
2022/03/12 10:03:26;;;;;;;19.73;16.83;;;11.70;64.30;;;;;;5014361;28;20170;-71
2022/03/12 10:05:52;;;;;;;20.83;14.67;;;11.90;64.30;;;;;;5012675;28;20256;-71
2022/03/12 10:08:17;;;;;;;18.30;16.37;;;12.10;63.60;;;;;;5013162;28;20439;-71
2022/03/12 10:10:44;;;;;;;24.10;15.50;;;12.20;63.70;;;;;;5013354;28;20166;-71
2022/03/12 10:13:10;;;;;;;19.30;15.90;;;12.30;63.10;;;;;;5013044;28;20539;-71
2022/03/12 10:15:37;;;;;;;16.60;14.20;;;12.30;63.70;;;;;;5013471;28;20436;-71
2022/03/12 10:18:03;;;;;;;18.00;15.67;;;12.60;64.00;;;;;;5012278;28;20426;-71
2022/03/12 10:20:30;;;;;;;18.40;15.97;;;12.60;62.50;;;;;;5013193;28;20498;-71
2022/03/12 10:22:56;;;;;;;17.50;15.37;;;12.90;62.80;;;;;;5011931;28;20503;-71
2022/03/12 10:25:22;;;;;;;16.73;14.63;;;13.10;63.90;;;;;;5013068;28;20549;-71
2022/03/12 10:27:48;;;;;;;18.47;16.00;;;13.10;62.90;;;;;;5012947;28;20925;-71
2022/03/12 10:30:13;;;;;;;17.90;16.00;;;13.20;64.20;;;;;;5013080;28;20426;-71
2022/03/12 10:32:47;;;;;;;16.07;14.43;;;13.30;63.60;;;;;;5012813;28;20538;-72
2022/03/12 10:35:19;;;;;;;19.83;15.90;;;13.30;63.20;;;;;;5013336;28;20171;-72
2022/03/12 10:37:46;;;;;;;17.50;15.60;;;13.10;63.40;;;;;;5012593;28;20429;-72
2022/03/12 10:40:23;;;;;;;18.70;13.83;;;13.20;64.30;;;;;;5012881;28;20493;-71
2022/03/12 10:43:05;;;;;;;18.33;16.40;;;13.30;64.20;;;;;;5013165;28;20816;-71
2022/03/12 10:45:39;;;;;;;16.90;15.20;;;13.30;62.90;;;;;;5017114;28;20382;-71
2022/03/12 10:48:05;;;;;;;19.50;17.40;;;13.50;62.60;;;;;;5016626;28;20441;-71
2022/03/12 10:50:37;;;;;;;17.73;15.40;;;13.60;62.00;;;;;;5016871;28;20488;-72
2022/03/12 10:53:07;;;;;;;18.00;16.10;;;13.60;62.20;;;;;;5015441;28;20422;-71
2022/03/12 10:55:39;;;;;;;18.73;15.60;;;13.40;62.00;;;;;;5016885;28;20444;-71
2022/03/12 10:58:20;;;;;;;18.03;15.50;;;13.60;62.40;;;;;;5015813;28;20428;-71
2022/03/12 11:00:51;;;;;;;18.80;16.43;;;13.60;62.80;;;;;;5016623;28;20740;-71
2022/03/12 11:03:20;;;;;;;18.13;14.07;;;14.00;62.90;;;;;;5016827;28;20888;-72
2022/03/12 11:05:47;;;;;;;21.70;16.60;;;14.30;62.00;;;;;;5016492;28;20411;-72
2022/03/12 11:08:25;;;;;;;22.50;17.40;;;13.90;62.20;;;;;;5015929;28;20438;-72
2022/03/12 11:10:55;;;;;;;19.47;16.40;;;13.90;62.90;;;;;;5016495;28;20484;-71
2022/03/12 11:13:36;;;;;;;20.13;15.60;;;14.00;64.30;;;;;;5014154;28;20846;-71
2022/03/12 11:16:13;;;;;;;21.93;17.17;;;14.10;64.30;;;;;;5015087;28;20414;-71
2022/03/12 11:18:52;;;;;;;20.10;16.33;;;14.50;64.40;;;;;;5013082;28;20460;-71
2022/03/12 11:21:44;;;;;;;18.63;15.97;;;14.40;62.10;;;;;;5016302;28;20390;-71
2022/03/12 11:24:29;;;;;;;23.47;14.60;;;15.20;61.80;;;;;;5014970;28;20794;-73
2022/03/12 11:26:58;;;;;;;16.43;14.73;;;16.60;59.30;;;;;;5016029;28;20819;-71
2022/03/12 11:29:28;;;;;;;18.70;15.27;;;17.50;58.50;;;;;;5015736;28;20462;-71
2022/03/12 11:31:57;;;;;;;15.90;14.30;;;19.20;57.20;;;;;;5016200;28;20772;-71
2022/03/12 11:34:32;;;;;;;16.57;14.77;;;19.30;55.90;;;;;;5015512;28;20763;-71
2022/03/12 11:37:02;;;;;;;16.20;14.50;;;19.00;55.20;;;;;;5016283;28;20508;-71
2022/03/12 11:39:32;;;;;;;17.07;15.30;;;19.30;55.70;;;;;;5015736;28;20443;-71
2022/03/12 11:42:12;;;;;;;14.10;12.70;;;19.10;55.10;;;;;;5015925;28;20804;-71
2022/03/12 11:44:41;;;;;;;14.27;12.87;;;19.20;55.90;;;;;;5015401;28;20904;-71
2022/03/12 11:47:08;;;;;;;13.27;11.97;;;19.50;55.20;;;;;;5016023;28;20825;-71
2022/03/12 11:49:34;;;;;;;16.43;14.00;;;20.20;54.20;;;;;;5013027;28;20463;-71
2022/03/12 11:52:00;;;;;;;17.60;14.27;;;20.90;52.70;;;;;;5006200;28;20456;-71
2022/03/12 11:54:26;;;;;;;15.90;14.20;;;20.20;53.60;;;;;;5005995;28;20892;-71
2022/03/12 11:56:52;;;;;;;13.97;12.50;;;18.60;53.60;;;;;;5006836;28;20498;-72
2022/03/12 11:59:18;;;;;;;14.00;12.40;;;18.10;56.50;;;;;;5015182;28;20229;-71
2022/03/12 12:02:01;;;;;;;15.77;13.13;;;18.70;56.30;;;;;;5013951;28;20486;-72
2022/03/12 12:04:29;;;;;;;14.87;13.37;;;20.10;54.60;;;;;;5014852;28;20433;-71
2022/03/12 12:06:55;;;;;;;15.00;13.40;;;20.60;53.10;;;;;;5015090;28;20411;-72
2022/03/12 12:09:21;;;;;;;14.43;12.20;;;20.10;53.10;;;;;;5014943;28;20457;-71
2022/03/12 12:11:46;;;;;;;15.33;12.17;;;21.00;53.20;;;;;;5014820;28;20172;-71
2022/03/12 12:14:12;;;;;;;14.63;12.50;;;19.70;53.60;;;;;;5015012;28;20175;-71
2022/03/12 12:16:38;;;;;;;16.63;12.10;;;20.50;53.10;;;;;;5013783;28;20164;-70
2022/03/12 12:19:03;;;;;;;13.77;12.37;;;21.30;52.20;;;;;;5006490;28;20216;-69
2022/03/12 12:21:29;;;;;;;12.57;11.27;;;21.00;51.90;;;;;;4994930;28;20172;-73
2022/03/12 12:23:59;;;;;;;13.00;11.23;;;20.70;53.20;;;;;;4995247;28;20741;-72
2022/03/12 12:26:25;;;;;;;13.60;12.30;;;22.00;51.70;;;;;;4995408;28;20179;-70
2022/03/12 12:28:53;;;;;;;14.50;12.70;;;20.90;52.70;;;;;;4993708;28;20502;-71
2022/03/12 12:31:26;;;;;;;12.40;11.10;;;20.90;51.60;;;;;;4995209;28;20739;-71
2022/03/12 12:33:54;;;;;;;12.97;11.57;;;21.80;51.60;;;;;;4994524;28;20487;-71
2022/03/12 12:36:21;;;;;;;13.37;12.00;;;22.90;50.20;;;;;;4995244;28;20838;-71
2022/03/12 12:39:18;;;;;;;11.57;9.87;;;23.10;49.20;;;;;;4993150;28;20463;-71